createdAt,value
2022-09-05T00:00:22.469Z,26.50
2022-09-05T00:03:07.035Z,26.50
2022-09-05T00:06:01.862Z,26.50
2022-09-05T00:08:46.149Z,26.50
2022-09-05T00:11:41.178Z,26.50
2022-09-05T00:14:53.733Z,26.50
2022-09-05T00:17:19.721Z,26.50
2022-09-05T00:24:24.771Z,26.50
2022-09-05T00:24:34.888Z,26.50
2022-09-05T00:27:06.553Z,26.50
2022-09-05T00:31:50.570Z,26.50
2022-09-05T00:33:18.955Z,26.60
2022-09-05T00:36:11.889Z,26.50
2022-09-05T00:38:44.277Z,26.60
2022-09-05T00:41:15.461Z,26.50
2022-09-05T00:43:49.945Z,26.60
2022-09-05T00:46:26.858Z,26.60
2022-09-05T00:49:01.378Z,26.60
2022-09-05T00:51:37.697Z,26.60
2022-09-05T00:54:46.150Z,26.70
2022-09-05T00:57:40.875Z,26.70
2022-09-05T01:00:17.631Z,26.70
2022-09-05T01:03:10.994Z,26.70
2022-09-05T01:06:19.570Z,26.70
2022-09-05T01:09:08.779Z,26.80
2022-09-05T01:11:41.040Z,26.80
2022-09-05T01:14:36.833Z,26.80
2022-09-05T01:17:12.851Z,26.80
2022-09-05T01:20:04.608Z,26.80
2022-09-05T01:23:06.509Z,26.90
2022-09-05T01:26:01.557Z,26.90
2022-09-05T01:29:18.073Z,27.00
2022-09-05T01:32:13.583Z,27.00
2022-09-05T01:35:03.119Z,27.00
2022-09-05T01:37:46.945Z,27.10
2022-09-05T01:40:39.850Z,27.10
2022-09-05T01:43:20.887Z,27.10
2022-09-05T01:46:11.801Z,27.20
2022-09-05T01:49:17.687Z,27.20
2022-09-05T01:52:28.223Z,27.20
2022-09-05T01:55:04.974Z,27.20
2022-09-05T01:57:54.026Z,27.20
2022-09-05T02:00:41.412Z,27.20
2022-09-05T02:03:33.137Z,27.20
2022-09-05T02:06:13.192Z,27.20
2022-09-05T02:09:08.679Z,27.20
2022-09-05T02:11:45.889Z,27.20
2022-09-05T02:14:33.759Z,27.30
2022-09-05T02:17:50.034Z,27.30
2022-09-05T02:20:24.333Z,27.30
2022-09-05T02:23:34.238Z,27.30
2022-09-05T02:26:04.761Z,27.30
2022-09-05T02:29:03.458Z,27.40
2022-09-05T02:31:53.304Z,27.40
2022-09-05T02:34:30.617Z,27.40
2022-09-05T02:40:59.859Z,27.50
2022-09-05T02:45:13.047Z,27.60
2022-09-05T02:45:17.571Z,27.70
2022-09-05T02:46:20.144Z,27.80
2022-09-05T02:49:04.848Z,27.80
2022-09-05T02:57:25.866Z,27.90
2022-09-05T02:57:32.962Z,27.80
2022-09-05T02:58:07.838Z,27.90
2022-09-05T03:01:04.594Z,27.80
2022-09-05T03:03:39.370Z,27.80
2022-09-05T03:06:34.251Z,27.80
2022-09-05T03:09:55.966Z,27.80
2022-09-05T03:12:46.230Z,27.80
2022-09-05T03:15:26.607Z,27.90
2022-09-05T03:18:35.195Z,27.90
2022-09-05T03:21:16.296Z,27.90
2022-09-05T03:24:17.300Z,27.90
2022-09-05T03:26:47.520Z,27.90
2022-09-05T03:29:32.931Z,27.90
2022-09-05T03:32:42.131Z,27.90
2022-09-05T03:35:27.071Z,27.90
2022-09-05T03:38:04.754Z,27.90
2022-09-05T03:40:37.950Z,28.00
2022-09-05T03:43:27.374Z,28.10
2022-09-05T03:46:03.952Z,28.10
2022-09-05T03:48:53.552Z,28.10
2022-09-05T03:57:10.321Z,28.10
2022-09-05T03:57:14.940Z,28.20
2022-09-05T03:57:50.531Z,28.20
2022-09-05T04:00:37.886Z,28.20
2022-09-05T04:08:07.190Z,28.20
2022-09-05T04:08:15.723Z,28.20
2022-09-05T04:09:49.395Z,28.30
2022-09-05T04:12:31.719Z,28.30
2022-09-05T04:15:24.476Z,28.30
2022-09-05T04:18:03.737Z,28.40
2022-09-05T04:20:57.453Z,28.30
2022-09-05T04:23:35.869Z,28.40
2022-09-05T04:26:16.038Z,28.40
2022-09-05T04:29:05.365Z,28.50
2022-09-05T04:31:59.016Z,28.50
2022-09-05T04:34:46.183Z,28.50
2022-09-05T04:38:00.522Z,28.60
2022-09-05T04:40:35.187Z,28.60
2022-09-05T04:43:08.486Z,28.60
2022-09-05T04:45:57.893Z,28.70
2022-09-05T04:49:03.169Z,28.80
2022-09-05T04:52:01.502Z,28.80
2022-09-05T04:54:59.888Z,28.90
2022-09-05T04:57:34.860Z,29.00
2022-09-05T05:06:03.733Z,29.00
2022-09-05T05:06:14.076Z,29.00
2022-09-05T05:09:24.633Z,29.00
2022-09-05T05:18:02.332Z,29.00
2022-09-05T05:18:09.263Z,29.00
2022-09-05T05:18:36.744Z,29.00
2022-09-05T05:20:57.110Z,29.00
2022-09-05T05:23:37.539Z,29.00
2022-09-05T05:26:12.263Z,29.10
2022-09-05T05:29:02.221Z,29.20
2022-09-05T05:31:33.074Z,29.30
2022-09-05T05:34:09.652Z,29.30
2022-09-05T05:37:17.612Z,29.40
2022-09-05T05:40:02.471Z,29.50
2022-09-05T05:42:32.374Z,29.60
2022-09-05T05:45:02.512Z,29.70
2022-09-05T05:47:39.898Z,29.70
2022-09-05T05:50:24.938Z,29.80
2022-09-05T05:53:29.014Z,29.80
2022-09-05T05:56:18.074Z,29.90
2022-09-05T05:59:07.105Z,29.90
2022-09-05T06:01:59.984Z,30.00
2022-09-05T06:04:58.714Z,30.10
2022-09-05T06:09:30.451Z,30.10
2022-09-05T06:14:55.799Z,30.20
2022-09-05T06:15:08.722Z,30.30
2022-09-05T06:17:33.286Z,30.30
2022-09-05T06:22:04.513Z,30.20
2022-09-05T06:24:10.568Z,30.30
2022-09-05T06:27:14.889Z,30.40
2022-09-05T06:30:04.318Z,30.40
2022-09-05T06:32:38.239Z,30.60
2022-09-05T06:35:21.009Z,30.60
2022-09-05T06:38:06.541Z,30.60
2022-09-05T06:40:36.773Z,30.60
2022-09-05T06:43:33.209Z,30.60
2022-09-05T06:46:54.418Z,30.60
2022-09-05T06:49:51.423Z,30.50
2022-09-05T06:52:42.270Z,30.50
2022-09-05T06:55:29.041Z,30.40
2022-09-05T06:58:19.668Z,30.40
2022-09-05T07:00:55.722Z,30.40
2022-09-05T07:03:40.773Z,30.30
2022-09-05T07:06:52.364Z,30.30
2022-09-05T07:09:46.393Z,30.40
2022-09-05T07:12:18.198Z,30.50
2022-09-05T07:15:08.937Z,30.50
2022-09-05T07:18:09.957Z,30.50
2022-09-05T07:21:17.259Z,30.50
2022-09-05T07:24:06.887Z,30.40
2022-09-05T07:26:53.762Z,30.40
2022-09-05T07:29:34.780Z,30.40
2022-09-05T07:32:07.806Z,30.40
2022-09-05T07:34:39.253Z,30.40
2022-09-05T07:37:18.755Z,30.40
2022-09-05T07:39:53.888Z,30.30
2022-09-05T07:42:49.909Z,30.30
2022-09-05T07:45:52.322Z,30.20
2022-09-05T07:48:37.208Z,30.20
2022-09-05T07:56:32.059Z,30.20
2022-09-05T07:57:08.833Z,30.20
2022-09-05T07:57:30.338Z,30.20
2022-09-05T08:00:00.116Z,30.20
2022-09-05T08:02:29.410Z,30.20
2022-09-05T08:05:08.932Z,30.20
2022-09-05T08:07:49.519Z,30.20
2022-09-05T08:10:30.916Z,30.10
2022-09-05T08:13:23.993Z,30.10
2022-09-05T08:16:15.787Z,30.10
2022-09-05T08:18:52.273Z,30.10
2022-09-05T08:21:30.181Z,30.10
2022-09-05T08:24:13.878Z,30.00
2022-09-05T08:27:03.073Z,29.80
2022-09-05T08:29:44.141Z,29.60
2022-09-05T08:32:25.930Z,29.40
2022-09-05T08:35:18.090Z,29.30
2022-09-05T08:38:00.945Z,29.10
2022-09-05T08:40:43.609Z,29.10
2022-09-05T08:46:36.586Z,28.90
2022-09-05T08:47:12.972Z,28.80
2022-09-05T08:50:26.763Z,28.70
2022-09-05T08:53:45.724Z,28.70
2022-09-05T08:56:24.570Z,28.60
2022-09-05T08:59:28.367Z,28.60
2022-09-05T09:02:17.418Z,28.70
2022-09-05T09:05:14.366Z,28.60
2022-09-05T09:07:52.479Z,28.60
2022-09-05T09:10:30.410Z,28.60
2022-09-05T09:13:00.580Z,28.50
2022-09-05T09:16:02.493Z,28.50
2022-09-05T09:18:43.539Z,28.50
2022-09-05T09:21:38.924Z,28.50
2022-09-05T09:24:33.142Z,28.60
2022-09-05T09:27:09.639Z,28.60
2022-09-05T09:29:42.015Z,28.60
2022-09-05T09:32:19.093Z,28.60
2022-09-05T09:35:20.251Z,28.60
2022-09-05T09:38:26.350Z,28.70
2022-09-05T09:41:23.205Z,28.70
2022-09-05T09:44:31.571Z,28.80
2022-09-05T09:47:01.083Z,28.80
2022-09-05T09:49:46.798Z,28.80
2022-09-05T09:52:21.469Z,28.80
2022-09-05T09:55:29.957Z,28.80
2022-09-05T09:58:26.985Z,28.80
2022-09-05T10:01:35.126Z,28.70
2022-09-05T10:09:23.198Z,28.70
2022-09-05T10:10:53.205Z,28.70
2022-09-05T10:10:54.589Z,28.70
2022-09-05T10:13:19.785Z,28.70
2022-09-05T10:16:17.539Z,28.80
2022-09-05T10:18:59.561Z,28.80
2022-09-05T10:25:18.706Z,28.70
2022-09-05T10:28:06.884Z,28.60
2022-09-05T10:33:09.055Z,28.50
2022-09-05T10:35:20.822Z,28.40
2022-09-05T10:37:05.140Z,28.40
2022-09-05T10:39:40.539Z,28.30
2022-09-05T10:42:19.151Z,28.30
2022-09-05T10:44:54.011Z,28.30
2022-09-05T10:47:58.287Z,28.20
2022-09-05T10:50:46.036Z,28.20
2022-09-05T10:53:36.961Z,28.20
2022-09-05T10:56:14.633Z,28.10
2022-09-05T11:01:40.292Z,28.10
2022-09-05T11:02:29.473Z,28.00
2022-09-05T11:04:59.921Z,27.90
2022-09-05T11:08:03.240Z,27.90
2022-09-05T11:11:11.589Z,27.80
2022-09-05T11:13:57.811Z,27.70
2022-09-05T11:16:31.020Z,27.60
2022-09-05T11:19:05.185Z,27.60
2022-09-05T11:22:05.281Z,27.60
2022-09-05T11:24:58.088Z,27.50
2022-09-05T11:27:41.429Z,27.40
2022-09-05T11:30:29.799Z,27.30
2022-09-05T11:36:06.931Z,27.30
2022-09-05T11:39:56.071Z,27.20
2022-09-05T11:39:56.397Z,27.20
2022-09-05T11:42:33.003Z,27.00
2022-09-05T11:45:21.314Z,27.00
2022-09-05T11:48:26.199Z,26.90
2022-09-05T11:51:01.648Z,26.80
2022-09-05T11:53:54.781Z,26.80
2022-09-05T11:56:39.639Z,26.70
2022-09-05T11:59:35.517Z,26.70
2022-09-05T12:02:28.755Z,26.60
2022-09-05T12:05:51.166Z,26.60
2022-09-05T12:08:15.270Z,26.50
2022-09-05T12:11:11.824Z,26.40
2022-09-05T12:13:51.334Z,26.40
2022-09-05T12:16:26.521Z,26.30
2022-09-05T12:19:06.228Z,26.30
2022-09-05T12:22:10.170Z,26.30
2022-09-05T12:25:26.352Z,26.30
2022-09-05T12:29:27.346Z,26.20
2022-09-05T12:32:34.316Z,26.20
2022-09-05T12:36:07.972Z,26.20
2022-09-05T12:40:53.949Z,26.20
2022-09-05T12:41:42.575Z,26.20
2022-09-05T12:44:26.931Z,26.30
2022-09-05T12:46:34.688Z,26.30
2022-09-05T12:49:10.365Z,26.30
2022-09-05T12:51:55.528Z,26.30
2022-09-05T12:54:34.925Z,26.30
2022-09-05T12:59:38.833Z,26.40
2022-09-05T13:03:09.276Z,26.40
2022-09-05T13:03:29.912Z,26.40
2022-09-05T13:06:04.890Z,26.40
2022-09-05T13:08:59.766Z,26.40
2022-09-05T13:14:47.653Z,26.40
2022-09-05T13:14:58.748Z,26.50
2022-09-05T13:17:44.442Z,26.40
2022-09-05T13:20:18.852Z,26.40
2022-09-05T13:22:51.914Z,26.40
2022-09-05T13:25:28.359Z,26.40
2022-09-05T13:28:04.862Z,26.40
2022-09-05T13:35:04.014Z,26.40
2022-09-05T13:38:17.352Z,26.40
2022-09-05T13:38:29.294Z,26.30
2022-09-05T13:39:24.244Z,26.30
2022-09-05T13:42:00.835Z,26.40
2022-09-05T13:44:31.967Z,26.40
2022-09-05T13:47:29.356Z,26.40
2022-09-05T13:50:06.108Z,26.40
2022-09-05T13:52:41.431Z,26.40
2022-09-05T13:55:21.663Z,26.50
2022-09-05T13:58:01.310Z,26.60
2022-09-05T14:00:39.952Z,26.50
2022-09-05T14:03:30.663Z,26.50
2022-09-05T14:06:45.632Z,26.50
2022-09-05T14:09:37.928Z,26.50
2022-09-05T14:12:24.563Z,26.50
2022-09-05T14:15:14.370Z,26.50
2022-09-05T14:18:21.234Z,26.50
2022-09-05T14:21:16.097Z,26.60
2022-09-05T14:23:56.114Z,26.60
2022-09-05T14:26:31.406Z,26.50
2022-09-05T14:29:05.095Z,26.50
2022-09-05T14:37:44.166Z,26.40
2022-09-05T14:37:44.860Z,26.50
2022-09-05T14:38:14.775Z,26.40
2022-09-05T14:40:51.154Z,26.40
2022-09-05T14:43:57.013Z,26.40
2022-09-05T14:46:31.869Z,26.50
2022-09-05T14:49:21.149Z,26.50
2022-09-05T14:51:54.709Z,26.40
2022-09-05T15:00:33.225Z,26.40
2022-09-05T15:02:43.732Z,26.40
2022-09-05T15:03:10.329Z,26.40
2022-09-05T15:05:47.339Z,26.40
2022-09-05T15:11:24.000Z,26.50
2022-09-05T15:12:17.201Z,26.50
2022-09-05T15:14:11.636Z,26.50
2022-09-05T15:16:47.020Z,26.60
2022-09-05T15:20:06.151Z,26.50
2022-09-05T15:22:39.658Z,26.60
2022-09-05T15:25:21.524Z,26.50
2022-09-05T15:27:51.542Z,26.60
2022-09-05T15:30:36.554Z,26.50
2022-09-05T15:33:15.869Z,26.60
2022-09-05T15:35:46.451Z,26.60
2022-09-05T15:38:56.079Z,26.50
2022-09-05T15:41:31.346Z,26.50
2022-09-05T15:44:09.576Z,26.50
2022-09-05T15:47:02.928Z,26.50
2022-09-05T15:49:40.087Z,26.50
2022-09-05T15:52:35.927Z,26.50
2022-09-05T15:55:07.458Z,26.50
2022-09-05T15:57:42.385Z,26.50
2022-09-05T16:00:14.760Z,26.50
2022-09-05T16:02:50.159Z,26.50
2022-09-05T16:10:34.675Z,26.50
2022-09-05T16:10:59.126Z,26.60
2022-09-05T16:12:05.175Z,26.60
2022-09-05T16:14:19.309Z,26.60
2022-09-05T16:23:12.828Z,26.60
2022-09-05T16:23:24.110Z,26.60
2022-09-05T16:23:31.430Z,26.60
2022-09-05T16:25:44.414Z,26.60
2022-09-05T16:28:22.136Z,26.60
2022-09-05T16:30:53.563Z,26.60
2022-09-05T16:33:27.166Z,26.60
2022-09-05T16:36:19.743Z,26.60
2022-09-05T16:38:52.869Z,26.60
2022-09-05T16:41:32.425Z,26.60
2022-09-05T16:44:24.182Z,26.50
2022-09-05T16:47:06.369Z,26.50
2022-09-05T16:49:57.417Z,26.50
2022-09-05T16:52:53.253Z,26.50
2022-09-05T16:55:39.393Z,26.60
2022-09-05T16:58:29.713Z,26.50
2022-09-05T17:01:19.092Z,26.60
2022-09-05T17:03:49.428Z,26.60
2022-09-05T17:06:26.629Z,26.60
2022-09-05T17:09:12.359Z,26.50
2022-09-05T17:11:52.407Z,26.50
2022-09-05T17:14:37.027Z,26.50
2022-09-05T17:17:43.954Z,26.50
2022-09-05T17:20:15.819Z,26.50
2022-09-05T17:27:38.300Z,26.50
2022-09-05T17:29:34.492Z,26.50
2022-09-05T17:29:45.583Z,26.50
2022-09-05T17:31:54.098Z,26.50
2022-09-05T17:34:44.667Z,26.50
2022-09-05T17:37:35.013Z,26.40
2022-09-05T17:40:26.458Z,26.50
2022-09-05T17:43:02.694Z,26.40
2022-09-05T17:45:48.316Z,26.40
2022-09-05T17:48:38.047Z,26.40
2022-09-05T17:51:07.193Z,26.40
2022-09-05T17:54:06.557Z,26.40
2022-09-05T17:56:44.387Z,26.40
2022-09-05T17:59:17.895Z,26.40
2022-09-05T18:02:07.173Z,26.40
2022-09-05T18:04:53.832Z,26.30
2022-09-05T18:07:31.424Z,26.40
2022-09-05T18:10:15.395Z,26.40
2022-09-05T18:13:12.723Z,26.40
2022-09-05T18:15:37.815Z,26.40
2022-09-05T18:19:03.700Z,26.40
2022-09-05T18:21:21.455Z,26.40
2022-09-05T18:24:03.436Z,26.40
2022-09-05T18:26:41.980Z,26.40
2022-09-05T18:29:57.431Z,26.40
2022-09-05T18:32:35.217Z,26.40
2022-09-05T18:35:37.076Z,26.40
2022-09-05T18:38:51.554Z,26.40
2022-09-05T18:41:24.910Z,26.40
2022-09-05T18:44:14.014Z,26.40
2022-09-05T18:46:53.780Z,26.40
2022-09-05T18:50:22.014Z,26.30
2022-09-05T18:52:32.076Z,26.40
2022-09-05T18:56:11.346Z,26.30
2022-09-05T18:58:07.030Z,26.30
2022-09-05T19:00:44.704Z,26.30
2022-09-05T19:03:36.602Z,26.30
2022-09-05T19:06:36.436Z,26.30
2022-09-05T19:09:14.103Z,26.30
2022-09-05T19:11:57.436Z,26.30
2022-09-05T19:14:54.964Z,26.30
2022-09-05T19:17:27.677Z,26.20
2022-09-05T19:20:31.444Z,26.30
2022-09-05T19:23:10.803Z,26.30
2022-09-05T19:25:55.012Z,26.30
2022-09-05T19:36:56.451Z,26.30
2022-09-05T19:36:57.699Z,26.20
2022-09-05T19:36:59.434Z,26.30
2022-09-05T19:37:35.896Z,26.20
2022-09-05T19:43:05.871Z,26.20
2022-09-05T19:47:28.455Z,26.20
2022-09-05T19:47:42.046Z,26.20
2022-09-05T19:48:46.233Z,26.20
2022-09-05T19:51:19.226Z,26.20
2022-09-05T19:54:03.691Z,26.20
2022-09-05T19:56:40.586Z,26.10
2022-09-05T19:59:19.714Z,26.10
2022-09-05T20:01:50.467Z,26.10
2022-09-05T20:04:20.896Z,26.10
2022-09-05T20:06:51.905Z,26.10
2022-09-05T20:09:23.819Z,26.10
2022-09-05T20:11:58.337Z,26.20
2022-09-05T20:14:31.857Z,26.20
2022-09-05T20:17:22.602Z,26.20
2022-09-05T20:20:04.857Z,26.20
2022-09-05T20:22:47.692Z,26.20
2022-09-05T20:25:36.131Z,26.20
2022-09-05T20:28:16.949Z,26.20
2022-09-05T20:30:49.734Z,26.20
2022-09-05T20:33:22.120Z,26.20
2022-09-05T20:43:10.884Z,26.30
2022-09-05T20:43:16.111Z,26.20
2022-09-05T20:43:23.026Z,26.30
2022-09-05T20:44:51.795Z,26.30
2022-09-05T20:54:08.450Z,26.20
2022-09-05T20:54:15.238Z,26.30
2022-09-05T20:54:31.682Z,26.20
2022-09-05T20:56:24.839Z,26.20
2022-09-05T20:58:57.144Z,26.20
2022-09-05T21:01:28.607Z,26.20
2022-09-05T21:04:07.058Z,26.20
2022-09-05T21:06:38.214Z,26.20
2022-09-05T21:09:24.707Z,26.20
2022-09-05T21:11:57.673Z,26.20
2022-09-05T21:14:29.886Z,26.10
2022-09-05T21:17:14.779Z,26.10
2022-09-05T21:19:53.386Z,26.10
2022-09-05T21:22:26.568Z,26.10
2022-09-05T21:25:36.619Z,26.10
2022-09-05T21:28:33.848Z,26.10
2022-09-05T21:31:13.706Z,26.10
2022-09-05T21:33:46.327Z,26.10
2022-09-05T21:36:17.343Z,26.10
2022-09-05T21:38:46.623Z,26.10
2022-09-05T21:41:18.366Z,26.10
2022-09-05T21:47:39.511Z,26.10
2022-09-05T21:49:27.157Z,26.20
2022-09-05T21:51:56.681Z,26.20
2022-09-05T21:59:13.223Z,26.20
2022-09-05T21:59:32.963Z,26.10
2022-09-05T22:00:19.129Z,26.10
2022-09-05T22:02:50.610Z,26.10
2022-09-05T22:05:21.605Z,26.10
2022-09-05T22:07:53.524Z,26.10
2022-09-05T22:10:23.857Z,26.10
2022-09-05T22:13:13.634Z,26.10
2022-09-05T22:15:42.857Z,26.00
2022-09-05T22:18:17.287Z,26.00
2022-09-05T22:20:51.264Z,26.00
2022-09-05T22:23:41.810Z,26.00
2022-09-05T22:26:11.047Z,26.00
2022-09-05T22:28:47.692Z,26.00
2022-09-05T22:31:18.754Z,26.00
2022-09-05T22:33:51.300Z,26.00
2022-09-05T22:36:20.981Z,26.00
2022-09-05T22:38:50.712Z,26.00
2022-09-05T22:41:29.866Z,26.00
2022-09-05T22:43:59.744Z,25.90
2022-09-05T22:46:29.274Z,25.90
2022-09-05T22:48:58.675Z,25.90
2022-09-05T22:51:27.809Z,25.90
2022-09-05T22:53:56.947Z,25.90
2022-09-05T22:56:36.694Z,25.90
2022-09-05T22:59:10.387Z,26.00
2022-09-05T23:01:40.537Z,26.00
2022-09-05T23:04:09.689Z,26.00
2022-09-05T23:06:38.834Z,26.00
2022-09-05T23:09:08.061Z,26.00
2022-09-05T23:11:37.484Z,26.00
2022-09-05T23:14:06.610Z,26.00
2022-09-05T23:16:35.959Z,26.00
2022-09-05T23:19:05.305Z,26.00
2022-09-05T23:21:36.386Z,25.90
2022-09-05T23:24:05.589Z,25.90
2022-09-05T23:26:34.745Z,25.90
2022-09-05T23:29:03.824Z,25.90
2022-09-05T23:31:32.990Z,25.90
2022-09-05T23:34:02.241Z,25.90
2022-09-05T23:36:32.656Z,25.90
2022-09-05T23:39:17.645Z,25.90
2022-09-05T23:41:46.845Z,25.80
2022-09-05T23:44:16.351Z,25.90
2022-09-05T23:46:45.591Z,25.90
2022-09-05T23:49:14.755Z,26.00
2022-09-05T23:52:23.237Z,26.00
2022-09-05T23:54:52.438Z,26.00
2022-09-05T23:58:20.436Z,26.00
